Time;durP1;ratioP1;P1;durP2;ratioP2;P2;SDS_P1;SDS_P2;PMS_P1;PMS_P2;Temp;Humidity;BMP_temperature;BMP_pressure;BME280_temperature;BME280_humidity;BME280_pressure;Samples;Min_cycle;Max_cycle;Signal;HPM_P1;HPM_P2
2023/11/26 00:02:48;;;;;;;2.93;2.03;;;;;0.70;95546.00;;;;5007486;28;20433;-71
2023/11/26 00:05:38;;;;;;;2.77;1.97;;;;;0.80;95558.00;;;;5006750;28;20503;-70
2023/11/26 00:08:27;;;;;;;4.87;3.03;;;;;1.00;95559.00;;;;5008231;28;20433;-71
2023/11/26 00:11:16;;;;;;;2.20;1.70;;;;;0.90;95553.00;;;;5006774;28;20457;-70
2023/11/26 00:14:07;;;;;;;2.87;2.00;;;;;1.10;95551.00;;;;5008386;28;20481;-71
2023/11/26 00:16:56;;;;;;;2.43;1.77;;;;;1.20;95565.00;;;;5007955;28;20430;-70
2023/11/26 00:19:45;;;;;;;4.30;2.97;;;;;1.40;95562.00;;;;5005683;28;20985;-71
2023/11/26 00:22:34;;;;;;;3.00;2.10;;;;;0.90;95560.00;;;;5007944;28;20946;-71
2023/11/26 00:25:24;;;;;;;2.97;2.03;;;;;0.70;95562.00;;;;5005424;28;20441;-71
2023/11/26 00:28:13;;;;;;;1.93;1.53;;;;;1.00;95566.00;;;;5008805;28;20425;-71
2023/11/26 00:31:03;;;;;;;2.00;1.50;;;;;1.10;95568.00;;;;5009676;28;20994;-70
2023/11/26 00:33:53;;;;;;;3.97;3.07;;;;;1.00;95575.00;;;;5008120;28;21008;-70
2023/11/26 00:36:43;;;;;;;5.40;3.73;;;;;1.20;95591.00;;;;5006232;28;20452;-71
2023/11/26 00:39:32;;;;;;;2.93;2.03;;;;;1.20;95592.00;;;;5006947;28;20420;-71
2023/11/26 00:42:21;;;;;;;1.90;1.63;;;;;1.40;95587.00;;;;5008371;28;20440;-71
2023/11/26 00:45:11;;;;;;;2.27;1.80;;;;;1.00;95580.00;;;;5008667;28;20453;-71
2023/11/26 00:48:01;;;;;;;2.83;1.93;;;;;1.10;95584.00;;;;5011328;28;20945;-71
2023/11/26 00:50:50;;;;;;;3.77;2.77;;;;;1.20;95592.00;;;;5008596;28;20442;-70
2023/11/26 00:53:40;;;;;;;3.87;2.53;;;;;1.20;95591.00;;;;5004099;28;20471;-70
2023/11/26 00:56:29;;;;;;;2.53;2.03;;;;;0.70;95584.00;;;;5008616;28;20417;-69
2023/11/26 00:59:19;;;;;;;2.40;1.80;;;;;0.60;95599.00;;;;5010187;28;20442;-69
2023/11/26 01:02:09;;;;;;;2.43;1.77;;;;;0.90;95591.00;;;;5004538;28;20429;-70
2023/11/26 01:05:00;;;;;;;2.00;1.57;;;;;1.00;95587.00;;;;5014078;28;20453;-71
2023/11/26 01:07:49;;;;;;;4.37;2.90;;;;;1.00;95602.00;;;;5007896;28;20452;-70
2023/11/26 01:10:38;;;;;;;3.50;2.40;;;;;1.10;95612.00;;;;5001776;28;20504;-70
2023/11/26 01:13:29;;;;;;;2.10;1.67;;;;;1.20;95621.00;;;;5004082;28;20445;-70
2023/11/26 01:16:19;;;;;;;3.40;2.27;;;;;1.30;95612.00;;;;5008735;28;20429;-72
2023/11/26 01:19:08;;;;;;;3.80;2.67;;;;;1.20;95614.00;;;;5006909;28;20429;-71
2023/11/26 01:21:58;;;;;;;2.97;1.97;;;;;1.10;95619.00;;;;5008335;28;21915;-70
2023/11/26 01:24:47;;;;;;;4.07;2.83;;;;;1.10;95610.00;;;;5010378;28;20452;-71
2023/11/26 01:27:37;;;;;;;2.23;1.63;;;;;1.10;95611.00;;;;4995763;28;20988;-71
2023/11/26 01:30:26;;;;;;;2.97;2.10;;;;;1.00;95612.00;;;;5002327;28;20430;-71
2023/11/26 01:33:18;;;;;;;2.73;1.83;;;;;1.10;95605.00;;;;5006895;28;20436;-70
2023/11/26 01:36:09;;;;;;;2.90;2.10;;;;;0.80;95609.00;;;;5008631;28;21004;-70
2023/11/26 01:39:00;;;;;;;3.37;2.40;;;;;0.40;95611.00;;;;5005308;28;20437;-71
2023/11/26 01:41:49;;;;;;;3.70;2.63;;;;;0.30;95617.00;;;;5007927;28;20445;-71
2023/11/26 01:44:38;;;;;;;2.30;1.73;;;;;0.60;95609.00;;;;5006324;28;20457;-70
2023/11/26 01:47:27;;;;;;;1.57;1.47;;;;;0.70;95630.00;;;;5001390;28;20432;-70
2023/11/26 01:50:21;;;;;;;2.47;1.87;;;;;0.70;95633.00;;;;5002545;28;20439;-70
2023/11/26 01:53:10;;;;;;;2.10;1.80;;;;;0.60;95632.00;;;;5006631;28;20525;-71
2023/11/26 01:56:01;;;;;;;3.60;2.30;;;;;0.70;95626.00;;;;5014344;28;20833;-72
2023/11/26 01:58:50;;;;;;;4.17;3.00;;;;;0.80;95632.00;;;;5011742;28;20436;-71
2023/11/26 02:01:41;;;;;;;3.23;2.53;;;;;0.70;95631.00;;;;5009416;28;20433;-71
2023/11/26 02:04:30;;;;;;;1.77;1.50;;;;;0.20;95631.00;;;;5010298;28;20445;-70
2023/11/26 02:07:19;;;;;;;2.40;1.90;;;;;-0.30;95618.00;;;;5007261;28;20432;-70
2023/11/26 02:10:09;;;;;;;2.50;2.13;;;;;0.10;95617.00;;;;5010353;28;20798;-70
2023/11/26 02:13:07;;;;;;;2.20;1.80;;;;;-0.40;95608.00;;;;5011188;28;20429;-70
2023/11/26 02:15:57;;;;;;;3.33;2.77;;;;;-0.40;95615.00;;;;5012368;28;20853;-71
2023/11/26 02:18:46;;;;;;;5.37;3.80;;;;;-0.60;95618.00;;;;5012268;28;20427;-71
2023/11/26 02:21:35;;;;;;;2.73;2.10;;;;;0.10;95614.00;;;;5009165;28;20424;-72
2023/11/26 02:24:28;;;;;;;2.03;1.57;;;;;-0.20;95609.00;;;;5006015;28;20453;-70
2023/11/26 02:27:19;;;;;;;2.77;2.10;;;;;-0.30;95608.00;;;;5005321;28;20425;-71
2023/11/26 02:30:10;;;;;;;2.37;1.80;;;;;-0.70;95605.00;;;;5010441;28;20430;-70
2023/11/26 02:32:59;;;;;;;3.33;2.30;;;;;0.10;95631.00;;;;5009789;28;20444;-70
2023/11/26 02:35:48;;;;;;;4.27;2.77;;;;;0.30;95635.00;;;;5010240;28;20484;-70
2023/11/26 02:38:37;;;;;;;4.30;2.60;;;;;0.40;95643.00;;;;5003327;28;20421;-70
2023/11/26 02:41:26;;;;;;;4.60;2.57;;;;;0.60;95644.00;;;;5012935;28;20476;-70
2023/11/26 02:44:17;;;;;;;3.80;2.20;;;;;0.40;95632.00;;;;5010634;28;20505;-70
2023/11/26 02:47:07;;;;;;;3.50;2.00;;;;;0.40;95636.00;;;;5010252;28;20479;-71
2023/11/26 02:49:57;;;;;;;4.23;2.23;;;;;0.60;95639.00;;;;5009102;28;20429;-69
2023/11/26 02:52:46;;;;;;;5.73;3.03;;;;;0.50;95644.00;;;;5010651;28;20433;-71
2023/11/26 02:55:35;;;;;;;4.33;2.33;;;;;0.30;95635.00;;;;5008461;28;20469;-69
2023/11/26 02:58:24;;;;;;;6.07;3.03;;;;;0.60;95657.00;;;;5003801;28;20436;-71
2023/11/26 03:01:25;;;;;;;3.90;2.23;;;;;0.80;95653.00;;;;5009203;28;20429;-70
2023/11/26 03:04:19;;;;;;;2.83;1.50;;;;;0.70;95649.00;;;;5007297;28;20449;-70
2023/11/26 03:07:08;;;;;;;2.83;1.63;;;;;0.40;95645.00;;;;5010814;28;20418;-71
2023/11/26 03:13:20;;;;;;;4.93;2.40;;;;;1.00;95668.00;;;;5008193;28;20421;-70
2023/11/26 03:16:12;;;;;;;3.53;1.80;;;;;0.70;95669.00;;;;5010760;28;20473;-70
2023/11/26 03:19:04;;;;;;;6.23;3.17;;;;;1.00;95674.00;;;;5008142;28;20422;-71
2023/11/26 03:21:54;;;;;;;5.40;2.60;;;;;1.00;95670.00;;;;5008500;28;20768;-71
2023/11/26 03:24:43;;;;;;;7.53;3.27;;;;;1.20;95686.00;;;;5010422;28;20484;-71
2023/11/26 03:27:33;;;;;;;4.17;2.03;;;;;1.10;95688.00;;;;5005564;28;20437;-70
2023/11/26 03:30:22;;;;;;;3.33;1.80;;;;;1.20;95691.00;;;;5010421;28;20965;-71
2023/11/26 03:33:15;;;;;;;4.80;2.50;;;;;1.20;95701.00;;;;5008860;28;20444;-70
2023/11/26 03:36:09;;;;;;;5.57;2.60;;;;;1.20;95705.00;;;;5009950;28;20467;-71
2023/11/26 03:38:59;;;;;;;5.40;2.50;;;;;1.20;95699.00;;;;5010439;28;20429;-72
2023/11/26 03:41:49;;;;;;;7.07;3.33;;;;;1.10;95690.00;;;;5006882;28;20784;-71
2023/11/26 03:44:38;;;;;;;3.37;1.67;;;;;1.10;95691.00;;;;5002729;28;20453;-71
2023/11/26 03:47:27;;;;;;;4.07;2.07;;;;;0.60;95703.00;;;;5005880;28;20426;-70
2023/11/26 03:50:19;;;;;;;3.97;2.00;;;;;0.80;95703.00;;;;5013720;28;20812;-72
2023/11/26 03:53:09;;;;;;;3.93;2.07;;;;;0.90;95726.00;;;;5008709;28;20425;-71
2023/11/26 03:55:58;;;;;;;6.40;3.13;;;;;0.90;95718.00;;;;5009570;28;20473;-71
2023/11/26 03:58:48;;;;;;;8.63;3.60;;;;;0.50;95721.00;;;;5009324;28;20421;-71
2023/11/26 04:01:37;;;;;;;6.63;2.93;;;;;0.70;95719.00;;;;5003540;28;20801;-71
2023/11/26 04:04:26;;;;;;;4.87;2.27;;;;;0.80;95725.00;;;;5007115;28;20445;-72
2023/11/26 04:07:15;;;;;;;6.73;3.07;;;;;0.80;95725.00;;;;5009573;28;20432;-71
2023/11/26 04:10:08;;;;;;;5.27;2.47;;;;;0.90;95735.00;;;;5009669;28;20421;-70
2023/11/26 04:12:58;;;;;;;9.77;4.40;;;;;0.70;95716.00;;;;5012145;28;20464;-71
2023/11/26 04:15:54;;;;;;;8.50;3.70;;;;;0.60;95720.00;;;;5007702;28;20465;-71
2023/11/26 04:18:43;;;;;;;9.67;3.70;;;;;0.60;95730.00;;;;5006088;28;20441;-70
2023/11/26 04:21:33;;;;;;;8.57;3.60;;;;;0.30;95740.00;;;;5006362;28;20440;-70
2023/11/26 04:24:23;;;;;;;5.37;2.50;;;;;0.70;95744.00;;;;5009110;28;20456;-71
2023/11/26 04:27:14;;;;;;;4.37;2.10;;;;;0.90;95747.00;;;;5009290;28;20417;-70
2023/11/26 04:30:05;;;;;;;4.63;2.07;;;;;1.20;95753.00;;;;5006791;28;20968;-71
2023/11/26 04:32:54;;;;;;;7.97;3.60;;;;;1.10;95745.00;;;;5008186;28;20459;-70
2023/11/26 04:35:43;;;;;;;6.90;3.03;;;;;1.20;95756.00;;;;5005580;28;20432;-71
2023/11/26 04:38:32;;;;;;;8.57;3.83;;;;;1.30;95766.00;;;;5007466;28;20425;-71
2023/11/26 04:41:21;;;;;;;5.20;2.33;;;;;1.40;95775.00;;;;5004179;28;20437;-71
2023/11/26 04:44:12;;;;;;;3.47;1.83;;;;;1.40;95783.00;;;;5008325;28;20455;-70
2023/11/26 04:47:01;;;;;;;7.63;2.90;;;;;1.40;95778.00;;;;5009883;28;20428;-71
2023/11/26 04:49:50;;;;;;;11.90;4.10;;;;;1.20;95793.00;;;;5008609;28;20425;-71
2023/11/26 04:52:39;;;;;;;6.47;2.63;;;;;1.40;95790.00;;;;5008623;28;20452;-71
2023/11/26 04:55:29;;;;;;;5.97;2.40;;;;;1.50;95794.00;;;;5004356;28;20456;-71
2023/11/26 04:58:18;;;;;;;4.80;2.00;;;;;1.40;95796.00;;;;5008124;28;20425;-71
2023/11/26 05:01:10;;;;;;;5.33;2.23;;;;;0.90;95803.00;;;;5006597;28;20423;-70
2023/11/26 05:03:59;;;;;;;10.53;4.00;;;;;1.10;95800.00;;;;5008643;28;20833;-71
2023/11/26 05:06:48;;;;;;;6.00;2.50;;;;;1.40;95816.00;;;;5009210;28;20417;-71
2023/11/26 05:09:37;;;;;;;7.23;2.90;;;;;1.60;95809.00;;;;5008307;28;20436;-72
2023/11/26 05:12:27;;;;;;;6.10;2.60;;;;;1.50;95810.00;;;;4998133;28;20421;-71
2023/11/26 05:15:16;;;;;;;5.20;2.27;;;;;1.60;95833.00;;;;5001615;28;20445;-71
2023/11/26 05:18:06;;;;;;;7.03;2.70;;;;;1.40;95827.00;;;;5007230;28;20461;-72
2023/11/26 05:20:55;;;;;;;10.10;4.17;;;;;1.50;95824.00;;;;5007772;28;20818;-71
2023/11/26 05:23:45;;;;;;;12.17;4.57;;;;;1.60;95822.00;;;;5008728;28;20453;-71
2023/11/26 05:26:34;;;;;;;6.47;2.70;;;;;1.50;95827.00;;;;5004996;28;20425;-71
2023/11/26 05:29:23;;;;;;;5.43;2.33;;;;;1.00;95823.00;;;;5007874;28;20428;-71
2023/11/26 05:32:12;;;;;;;5.20;2.40;;;;;1.20;95832.00;;;;5006735;28;20429;-71
2023/11/26 05:35:12;;;;;;;5.77;2.77;;;;;1.30;95840.00;;;;5008511;28;21175;-71
2023/11/26 05:38:01;;;;;;;5.27;2.43;;;;;1.00;95839.00;;;;5009897;28;20527;-71
2023/11/26 05:40:50;;;;;;;8.37;3.40;;;;;1.50;95849.00;;;;5006134;28;20425;-71
2023/11/26 05:43:39;;;;;;;5.33;2.37;;;;;1.50;95849.00;;;;5006920;28;20480;-72
2023/11/26 05:46:28;;;;;;;6.90;2.83;;;;;1.50;95856.00;;;;5004523;28;20784;-71
2023/11/26 05:49:17;;;;;;;5.23;2.40;;;;;1.70;95859.00;;;;5001683;28;21089;-71
2023/11/26 05:52:08;;;;;;;5.17;2.20;;;;;1.70;95864.00;;;;5007386;28;20429;-70
2023/11/26 05:54:57;;;;;;;6.77;2.97;;;;;1.70;95867.00;;;;5008005;28;20453;-70
2023/11/26 05:57:46;;;;;;;8.47;3.57;;;;;1.70;95873.00;;;;5007755;28;20473;-70
2023/11/26 06:00:35;;;;;;;4.73;2.30;;;;;1.40;95869.00;;;;5004804;28;20433;-71
2023/11/26 06:03:24;;;;;;;4.83;2.37;;;;;1.10;95863.00;;;;5003532;28;20452;-70
2023/11/26 06:06:14;;;;;;;5.67;2.67;;;;;1.10;95880.00;;;;5007202;28;20429;-71
2023/11/26 06:09:05;;;;;;;6.03;3.00;;;;;1.20;95894.00;;;;5006195;28;20429;-70
2023/11/26 06:11:54;;;;;;;5.43;2.50;;;;;1.30;95901.00;;;;5000941;28;20461;-70
2023/11/26 06:14:43;;;;;;;6.10;2.87;;;;;1.60;95904.00;;;;5007713;28;20464;-70
2023/11/26 06:17:33;;;;;;;4.70;2.27;;;;;1.90;95924.00;;;;5006326;28;20468;-71
2023/11/26 06:20:22;;;;;;;5.33;2.37;;;;;2.00;95916.00;;;;5005388;28;20426;-71
2023/11/26 06:23:11;;;;;;;6.03;2.70;;;;;1.90;95916.00;;;;5008034;28;20426;-69
2023/11/26 06:26:01;;;;;;;9.27;3.90;;;;;2.00;95923.00;;;;5008292;28;20425;-70
2023/11/26 06:28:50;;;;;;;14.53;5.47;;;;;2.00;95938.00;;;;5005100;28;20954;-69
2023/11/26 06:31:40;;;;;;;9.97;3.93;;;;;1.90;95931.00;;;;5003621;28;20950;-69
2023/11/26 06:34:29;;;;;;;6.93;2.77;;;;;2.00;95944.00;;;;5005045;28;20460;-70
2023/11/26 06:37:18;;;;;;;6.53;2.70;;;;;1.90;95941.00;;;;5007885;28;20457;-70
2023/11/26 06:40:09;;;;;;;6.30;2.70;;;;;2.00;95954.00;;;;5008422;28;20444;-70
2023/11/26 06:43:00;;;;;;;7.20;3.07;;;;;2.10;95956.00;;;;5006926;28;20429;-69
2023/11/26 06:45:49;;;;;;;9.67;3.83;;;;;2.00;95946.00;;;;5008825;28;20441;-70
2023/11/26 06:48:38;;;;;;;8.20;3.37;;;;;2.00;95956.00;;;;5007482;28;20426;-70
2023/11/26 06:51:27;;;;;;;9.10;3.53;;;;;1.80;95959.00;;;;5010836;28;20472;-70
2023/11/26 06:54:16;;;;;;;5.40;2.33;;;;;2.10;95971.00;;;;5005225;28;20460;-71
2023/11/26 06:57:06;;;;;;;6.87;2.93;;;;;2.00;95971.00;;;;5009517;28;20859;-71
2023/11/26 06:59:56;;;;;;;12.30;4.73;;;;;2.20;95978.00;;;;5003278;28;20446;-70
2023/11/26 07:02:46;;;;;;;7.87;3.07;;;;;2.40;95979.00;;;;5006753;28;21144;-70
2023/11/26 07:05:35;;;;;;;6.87;2.87;;;;;2.50;95981.00;;;;5012449;28;20445;-70
2023/11/26 07:08:25;;;;;;;10.87;4.07;;;;;2.70;96002.00;;;;5011623;28;20456;-70
2023/11/26 07:11:18;;;;;;;7.40;2.97;;;;;2.40;95984.00;;;;5009566;28;20471;-70
2023/11/26 07:14:08;;;;;;;3.80;1.80;;;;;2.40;95996.00;;;;5013937;28;20449;-70
2023/11/26 07:16:59;;;;;;;9.97;4.23;;;;;2.20;96005.00;;;;5014634;28;20416;-70
2023/11/26 07:19:49;;;;;;;10.60;4.07;;;;;2.30;96007.00;;;;5007424;28;20435;-69
2023/11/26 07:22:38;;;;;;;6.03;2.63;;;;;2.20;96010.00;;;;5012080;28;20421;-71
2023/11/26 07:25:27;;;;;;;4.07;1.97;;;;;2.10;96007.00;;;;5005443;28;20459;-71
2023/11/26 07:28:16;;;;;;;5.27;2.27;;;;;2.10;96010.00;;;;5004879;28;20429;-70
2023/11/26 07:31:07;;;;;;;4.73;2.20;;;;;2.10;96018.00;;;;5005565;28;21261;-70
2023/11/26 07:33:58;;;;;;;9.77;4.30;;;;;2.50;96015.00;;;;5004314;28;20483;-71
2023/11/26 07:36:51;;;;;;;6.03;2.60;;;;;2.70;96028.00;;;;5014591;28;20433;-70
2023/11/26 07:39:40;;;;;;;7.40;3.17;;;;;2.80;96038.00;;;;5001761;28;20836;-70
2023/11/26 07:42:29;;;;;;;6.40;2.80;;;;;2.90;96045.00;;;;5012761;28;20937;-71
2023/11/26 07:45:18;;;;;;;14.77;5.67;;;;;2.70;96046.00;;;;5001375;28;20437;-71
2023/11/26 07:48:07;;;;;;;9.47;3.67;;;;;2.80;96044.00;;;;5004000;28;20972;-72
2023/11/26 07:50:58;;;;;;;7.37;2.90;;;;;3.00;96061.00;;;;5005275;28;20830;-70
2023/11/26 07:53:47;;;;;;;12.97;4.77;;;;;3.10;96048.00;;;;5007528;28;20449;-71
2023/11/26 07:56:38;;;;;;;6.73;2.70;;;;;3.30;96053.00;;;;5008097;28;20425;-70
2023/11/26 07:59:28;;;;;;;7.73;2.93;;;;;3.40;96067.00;;;;5005849;28;20518;-70
2023/11/26 08:02:17;;;;;;;4.13;1.77;;;;;3.60;96061.00;;;;5009638;28;20418;-71
2023/11/26 08:05:08;;;;;;;6.37;2.57;;;;;3.80;96066.00;;;;5003608;28;20964;-71
2023/11/26 08:08:00;;;;;;;11.40;4.40;;;;;3.90;96067.00;;;;5002862;28;20439;-70
2023/11/26 08:10:50;;;;;;;10.40;3.80;;;;;4.10;96087.00;;;;5010577;28;21217;-70
2023/11/26 08:13:41;;;;;;;6.07;2.40;;;;;4.10;96078.00;;;;5009834;28;20449;-69
2023/11/26 08:16:30;;;;;;;4.20;1.77;;;;;4.10;96077.00;;;;5003911;28;21112;-70
2023/11/26 08:19:19;;;;;;;5.17;2.30;;;;;4.50;96075.00;;;;5005194;28;20859;-70
2023/11/26 08:22:09;;;;;;;7.57;3.13;;;;;4.60;96077.00;;;;5004070;28;20753;-71
2023/11/26 08:25:02;;;;;;;8.93;3.87;;;;;4.40;96073.00;;;;5004996;28;20433;-70
2023/11/26 08:27:51;;;;;;;9.27;3.90;;;;;4.60;96069.00;;;;5008224;28;20436;-70
2023/11/26 08:30:42;;;;;;;7.10;3.03;;;;;4.90;96086.00;;;;5006794;28;20950;-70
2023/11/26 08:33:37;;;;;;;5.27;2.23;;;;;5.10;96084.00;;;;5002904;28;20475;-70
2023/11/26 08:36:29;;;;;;;6.23;2.80;;;;;5.20;96068.00;;;;5001828;28;20441;-69
2023/11/26 08:39:25;;;;;;;5.33;2.53;;;;;5.10;96068.00;;;;4997166;28;20476;-70
2023/11/26 08:42:16;;;;;;;4.33;1.97;;;;;5.20;96065.00;;;;4998484;28;20292;-70
2023/11/26 08:45:08;;;;;;;5.27;2.43;;;;;5.20;96078.00;;;;5004727;28;20222;-70
2023/11/26 08:47:58;;;;;;;10.60;4.63;;;;;5.60;96092.00;;;;5005363;28;20198;-69
2023/11/26 08:50:49;;;;;;;5.73;2.70;;;;;5.40;96083.00;;;;5001253;28;20209;-70
2023/11/26 08:53:38;;;;;;;7.10;3.27;;;;;5.50;96097.00;;;;4999185;28;20713;-69
2023/11/26 08:56:27;;;;;;;5.33;2.53;;;;;5.70;96099.00;;;;5000172;28;20710;-70
2023/11/26 08:59:18;;;;;;;6.93;3.20;;;;;5.20;96100.00;;;;5002474;28;20233;-70
2023/11/26 09:02:07;;;;;;;6.60;3.07;;;;;5.50;96092.00;;;;5001832;28;20709;-70
2023/11/26 09:04:57;;;;;;;7.90;3.83;;;;;5.80;96106.00;;;;5003684;28;20232;-71
2023/11/26 09:07:46;;;;;;;4.53;2.27;;;;;6.10;96116.00;;;;5006878;28;20202;-70
2023/11/26 09:10:36;;;;;;;5.70;2.80;;;;;6.10;96115.00;;;;4998671;28;20212;-69
2023/11/26 09:13:28;;;;;;;4.00;2.00;;;;;6.30;96121.00;;;;4998370;28;20222;-70
2023/11/26 09:16:19;;;;;;;9.60;4.40;;;;;6.40;96122.00;;;;5002498;28;20589;-70
2023/11/26 09:19:09;;;;;;;4.43;2.20;;;;;6.80;96122.00;;;;5001195;28;20718;-70
2023/11/26 09:22:02;;;;;;;3.73;1.93;;;;;6.90;96121.00;;;;5004637;28;20206;-70
2023/11/26 09:24:51;;;;;;;7.37;3.40;;;;;7.10;96128.00;;;;5003676;28;20230;-70
2023/11/26 09:27:41;;;;;;;4.20;1.90;;;;;7.10;96140.00;;;;5005685;28;20205;-70
2023/11/26 09:30:30;;;;;;;4.23;2.03;;;;;6.90;96139.00;;;;5000693;28;20205;-71
2023/11/26 09:33:22;;;;;;;6.67;3.00;;;;;5.80;96141.00;;;;5000590;28;20824;-69
2023/11/26 09:36:11;;;;;;;5.77;2.67;;;;;6.00;96142.00;;;;4995215;28;20207;-69
2023/11/26 09:39:00;;;;;;;6.13;2.77;;;;;6.50;96142.00;;;;5006871;28;20248;-69
2023/11/26 09:41:55;;;;;;;7.40;3.40;;;;;6.90;96162.00;;;;5001652;28;20579;-71
2023/11/26 09:44:45;;;;;;;3.90;1.97;;;;;6.50;96154.00;;;;5005668;28;20223;-71
2023/11/26 09:47:34;;;;;;;7.90;3.63;;;;;7.00;96158.00;;;;5000429;28;20757;-70
2023/11/26 09:50:28;;;;;;;8.03;3.60;;;;;6.90;96137.00;;;;5002940;28;20225;-71
2023/11/26 09:53:17;;;;;;;5.00;2.30;;;;;6.90;96134.00;;;;5005491;28;20473;-69
2023/11/26 09:56:09;;;;;;;5.73;2.53;;;;;7.30;96142.00;;;;4997520;28;20217;-70
2023/11/26 09:58:59;;;;;;;11.30;5.17;;;;;7.10;96144.00;;;;5003766;28;20659;-70
2023/11/26 10:01:48;;;;;;;9.00;3.97;;;;;7.40;96134.00;;;;5003269;28;20198;-72
2023/11/26 10:04:47;;;;;;;6.10;2.83;;;;;7.40;96131.00;;;;5004806;28;20273;-70
2023/11/26 10:07:40;;;;;;;8.73;3.53;;;;;7.40;96121.00;;;;5005413;28;20389;-70
2023/11/26 10:10:31;;;;;;;6.20;2.63;;;;;8.00;96148.00;;;;4999574;28;20226;-71
2023/11/26 10:13:20;;;;;;;4.63;2.10;;;;;8.00;96148.00;;;;5000118;28;20210;-71
2023/11/26 10:16:09;;;;;;;10.30;4.53;;;;;8.00;96150.00;;;;5005326;28;20226;-69
2023/11/26 10:18:59;;;;;;;8.93;4.10;;;;;7.80;96149.00;;;;5006199;28;20198;-71
2023/11/26 10:21:53;;;;;;;6.43;2.93;;;;;7.90;96134.00;;;;5008652;28;21446;-70
2023/11/26 10:24:43;;;;;;;7.30;3.33;;;;;8.60;96136.00;;;;5005098;28;20229;-71
2023/11/26 10:27:36;;;;;;;6.13;2.83;;;;;9.00;96137.00;;;;5008076;28;20206;-69
2023/11/26 10:30:27;;;;;;;4.80;2.27;;;;;9.00;96146.00;;;;5005914;28;20244;-71
2023/11/26 10:33:17;;;;;;;3.87;1.83;;;;;8.80;96159.00;;;;5008031;28;20210;-71
2023/11/26 10:36:06;;;;;;;6.30;2.93;;;;;8.40;96139.00;;;;5011677;28;20206;-71
2023/11/26 10:38:56;;;;;;;5.37;2.47;;;;;8.70;96153.00;;;;5016147;28;20209;-70
2023/11/26 10:41:49;;;;;;;5.27;2.57;;;;;8.40;96159.00;;;;5010823;28;20205;-71
2023/11/26 10:44:38;;;;;;;5.17;2.47;;;;;8.30;96151.00;;;;5015084;28;20232;-71
2023/11/26 10:47:30;;;;;;;4.10;1.90;;;;;8.50;96154.00;;;;5016496;28;20205;-70
2023/11/26 10:50:19;;;;;;;5.23;2.53;;;;;8.00;96155.00;;;;5009639;28;20249;-70
2023/11/26 10:53:16;;;;;;;4.67;2.17;;;;;7.80;96164.00;;;;5017762;28;20251;-70
2023/11/26 10:56:06;;;;;;;4.63;2.20;;;;;8.00;96164.00;;;;5011884;28;20206;-71
2023/11/26 10:58:58;;;;;;;10.37;4.87;;;;;7.60;96162.00;;;;5006092;28;20237;-69
2023/11/26 11:01:48;;;;;;;6.30;2.97;;;;;7.20;96159.00;;;;5007153;28;20597;-70
2023/11/26 11:04:37;;;;;;;7.30;3.67;;;;;6.60;96171.00;;;;5004822;28;20276;-70
2023/11/26 11:07:27;;;;;;;4.20;2.13;;;;;6.40;96172.00;;;;5007982;28;20209;-71
2023/11/26 11:10:22;;;;;;;3.17;1.60;;;;;6.10;96177.00;;;;5013874;28;20752;-69
2023/11/26 11:13:17;;;;;;;5.37;2.80;;;;;6.00;96164.00;;;;5007355;28;20210;-70
2023/11/26 11:16:09;;;;;;;3.83;2.13;;;;;6.30;96172.00;;;;5012294;28;21251;-70
2023/11/26 11:18:58;;;;;;;8.90;4.73;;;;;6.40;96180.00;;;;5002078;28;20206;-70
2023/11/26 11:21:50;;;;;;;5.43;3.03;;;;;6.30;96172.00;;;;5006362;28;20201;-70
2023/11/26 11:24:39;;;;;;;4.50;2.30;;;;;6.40;96178.00;;;;5008401;28;20222;-71
2023/11/26 11:27:48;;;;;;;4.17;2.23;;;;;7.00;96169.00;;;;4999744;28;20284;-70
2023/11/26 11:30:55;;;;;;;4.53;2.40;;;;;7.60;96172.00;;;;5011451;28;20226;-70
2023/11/26 11:34:20;;;;;;;6.83;3.40;;;;;8.10;96170.00;;;;5003764;28;20233;-69
2023/11/26 11:37:10;;;;;;;3.70;1.97;;;;;8.40;96170.00;;;;5005624;28;20213;-70
2023/11/26 11:40:00;;;;;;;8.70;4.10;;;;;8.60;96165.00;;;;5012705;28;20216;-70
2023/11/26 11:43:13;;;;;;;6.10;2.90;;;;;9.30;96185.00;;;;5005019;28;20213;-71
2023/11/26 11:46:44;;;;;;;8.57;3.97;;;;;9.50;96189.00;;;;5007003;28;20212;-70
2023/11/26 11:50:10;;;;;;;5.87;2.47;;;;;8.50;96185.00;;;;5006417;28;20221;-70
2023/11/26 11:53:00;;;;;;;13.23;5.87;;;;;9.60;96180.00;;;;5002329;28;20205;-71
2023/11/26 11:55:59;;;;;;;6.90;3.20;;;;;10.30;96196.00;;;;5007575;28;20217;-71
2023/11/26 11:58:48;;;;;;;7.60;3.27;;;;;10.70;96177.00;;;;5008053;28;20216;-71
2023/11/26 12:01:38;;;;;;;7.10;3.20;;;;;11.00;96192.00;;;;5008413;28;20198;-71
2023/11/26 12:04:41;;;;;;;7.10;3.20;;;;;11.60;96193.00;;;;5011163;28;20222;-71
2023/11/26 12:07:34;;;;;;;4.40;2.00;;;;;12.00;96203.00;;;;4999017;28;20206;-71
2023/11/26 12:10:24;;;;;;;5.23;2.27;;;;;12.40;96192.00;;;;5001036;28;20218;-71
2023/11/26 12:13:13;;;;;;;3.83;1.67;;;;;12.30;96217.00;;;;5007081;28;20213;-71
2023/11/26 12:16:02;;;;;;;7.40;3.37;;;;;12.20;96238.00;;;;5006208;28;20224;-71
2023/11/26 12:18:56;;;;;;;9.73;4.23;;;;;11.30;96223.00;;;;5004781;28;20569;-70
2023/11/26 12:21:45;;;;;;;5.53;2.63;;;;;11.00;96212.00;;;;5005319;28;20249;-71
2023/11/26 12:24:37;;;;;;;3.60;1.77;;;;;11.20;96227.00;;;;5007809;28;20225;-71
2023/11/26 12:27:29;;;;;;;4.03;2.03;;;;;10.70;96239.00;;;;5008044;28;20555;-71
2023/11/26 12:30:21;;;;;;;8.47;3.93;;;;;10.30;96238.00;;;;5001687;28;20234;-71
2023/11/26 12:33:12;;;;;;;3.73;1.80;;;;;9.60;96246.00;;;;5000256;28;20206;-71
2023/11/26 12:36:01;;;;;;;8.53;3.97;;;;;9.30;96244.00;;;;5005574;28;20353;-70
2023/11/26 12:38:50;;;;;;;8.93;4.17;;;;;8.90;96251.00;;;;5003267;28;20210;-70
2023/11/26 12:41:41;;;;;;;6.17;2.90;;;;;8.10;96247.00;;;;5003297;28;20194;-70
2023/11/26 12:44:33;;;;;;;4.83;2.23;;;;;8.00;96252.00;;;;5004834;28;20218;-71
2023/11/26 12:47:23;;;;;;;6.03;2.90;;;;;7.60;96250.00;;;;4999562;28;20210;-70
2023/11/26 12:50:12;;;;;;;4.13;2.07;;;;;7.60;96264.00;;;;5004865;28;20272;-71
2023/11/26 12:53:03;;;;;;;8.27;4.23;;;;;6.90;96255.00;;;;5005529;28;20207;-70
2023/11/26 12:55:52;;;;;;;7.33;3.40;;;;;7.10;96248.00;;;;5008770;28;20237;-71
2023/11/26 12:58:43;;;;;;;5.13;2.60;;;;;7.40;96261.00;;;;5011112;28;20591;-70
2023/11/26 13:01:34;;;;;;;6.83;3.30;;;;;7.30;96239.00;;;;5014196;28;20198;-71
2023/11/26 13:04:30;;;;;;;5.17;2.53;;;;;7.30;96258.00;;;;5014099;28;20225;-74
2023/11/26 13:07:19;;;;;;;2.80;1.50;;;;;7.00;96248.00;;;;5000823;28;20246;-71
2023/11/26 13:10:09;;;;;;;8.13;3.87;;;;;6.80;96247.00;;;;5007803;28;20488;-70
2023/11/26 13:12:58;;;;;;;6.33;3.00;;;;;7.10;96248.00;;;;5001716;28;20228;-70
2023/11/26 13:15:49;;;;;;;5.30;2.60;;;;;7.50;96240.00;;;;5006329;28;20858;-69
2023/11/26 13:18:38;;;;;;;6.23;3.03;;;;;7.70;96248.00;;;;5007159;28;20202;-69
2023/11/26 13:21:28;;;;;;;7.00;3.00;;;;;8.30;96240.00;;;;5002544;28;20211;-69
2023/11/26 13:24:18;;;;;;;3.17;1.50;;;;;9.00;96268.00;;;;5006943;28;20226;-70
2023/11/26 13:27:08;;;;;;;7.07;3.37;;;;;9.30;96279.00;;;;5006457;28;20213;-70
2023/11/26 13:29:57;;;;;;;10.93;4.50;;;;;8.90;96280.00;;;;5008860;28;20209;-71
2023/11/26 13:32:47;;;;;;;6.10;2.70;;;;;9.10;96275.00;;;;5005659;28;20205;-70
2023/11/26 13:35:38;;;;;;;3.50;1.67;;;;;8.90;96275.00;;;;5007557;28;20202;-70
2023/11/26 13:38:28;;;;;;;5.17;2.27;;;;;8.50;96279.00;;;;5000640;28;20675;-70
2023/11/26 13:41:18;;;;;;;4.67;2.10;;;;;8.40;96296.00;;;;5004347;28;20202;-70
2023/11/26 13:44:08;;;;;;;7.00;3.40;;;;;7.70;96294.00;;;;5002421;28;20226;-70
2023/11/26 13:46:57;;;;;;;7.53;3.37;;;;;7.80;96294.00;;;;5002582;28;20762;-69
2023/11/26 13:49:47;;;;;;;5.70;2.87;;;;;7.50;96296.00;;;;5003946;28;20202;-70
2023/11/26 13:52:36;;;;;;;5.60;2.57;;;;;7.30;96287.00;;;;5005415;28;20208;-70
2023/11/26 13:55:27;;;;;;;5.07;2.40;;;;;6.80;96288.00;;;;5014613;28;20717;-69
2023/11/26 13:58:17;;;;;;;4.60;2.40;;;;;6.60;96290.00;;;;5001676;28;20203;-69
2023/11/26 14:01:08;;;;;;;8.90;4.57;;;;;6.70;96303.00;;;;5009966;28;20771;-69
2023/11/26 14:03:57;;;;;;;11.13;5.27;;;;;6.60;96307.00;;;;5007841;28;20707;-70
2023/11/26 14:06:48;;;;;;;6.93;3.50;;;;;6.50;96315.00;;;;4998851;28;20232;-69
2023/11/26 14:09:37;;;;;;;8.80;4.37;;;;;6.50;96316.00;;;;5002234;28;20210;-69
2023/11/26 14:12:26;;;;;;;4.53;2.27;;;;;6.50;96324.00;;;;5006233;28;20425;-70
2023/11/26 14:15:15;;;;;;;2.87;1.63;;;;;6.40;96331.00;;;;5008388;28;20222;-70
2023/11/26 14:18:05;;;;;;;6.80;3.67;;;;;6.40;96332.00;;;;5008809;28;20213;-69
2023/11/26 14:20:54;;;;;;;6.60;3.40;;;;;6.30;96333.00;;;;5007312;28;20217;-71
2023/11/26 14:23:45;;;;;;;6.93;3.23;;;;;6.10;96333.00;;;;5003668;28;20241;-70
2023/11/26 14:26:34;;;;;;;3.07;1.83;;;;;6.10;96344.00;;;;5007747;28;20198;-68
2023/11/26 14:29:26;;;;;;;3.97;2.10;;;;;6.10;96345.00;;;;5008612;28;20213;-69